Time;durP1;ratioP1;P1;durP2;ratioP2;P2;SDS_P1;SDS_P2;PMS_P1;PMS_P2;Temp;Humidity;BMP_temperature;BMP_pressure;BME280_temperature;BME280_humidity;BME280_pressure;Samples;Min_cycle;Max_cycle;Signal;HPM_P1;HPM_P2
2023/01/23 00:00:03;;;;;;;4.55;1.77;;;4.00;77.70;;;;;;5093176;28;20128;-73
2023/01/23 00:02:29;;;;;;;7.05;4.18;;;3.90;78.40;;;;;;5088157;28;20039;-73
2023/01/23 00:04:55;;;;;;;4.93;2.25;;;4.00;78.70;;;;;;5099581;28;20481;-73
2023/01/23 00:07:21;;;;;;;7.65;3.78;;;3.90;79.20;;;;;;5094263;28;20034;-73
2023/01/23 00:09:47;;;;;;;5.07;2.47;;;3.80;79.00;;;;;;5097538;28;20023;-73
2023/01/23 00:12:12;;;;;;;2.75;1.23;;;4.00;78.40;;;;;;5101571;28;20063;-73
2023/01/23 00:14:38;;;;;;;3.08;1.45;;;3.90;78.00;;;;;;5105410;28;20492;-73
2023/01/23 00:17:04;;;;;;;4.35;1.77;;;3.90;77.80;;;;;;5099471;28;20070;-73
2023/01/23 00:19:29;;;;;;;5.28;1.83;;;4.00;78.00;;;;;;5095586;28;20032;-73
2023/01/23 00:21:58;;;;;;;3.70;1.90;;;3.90;77.80;;;;;;5101497;28;20032;-73
2023/01/23 00:24:24;;;;;;;4.05;1.75;;;4.00;77.80;;;;;;5095056;28;20032;-73
2023/01/23 00:26:49;;;;;;;4.10;1.75;;;4.00;78.00;;;;;;5103932;28;20051;-73
2023/01/23 00:29:15;;;;;;;4.35;1.90;;;3.90;78.10;;;;;;5110240;28;20115;-73
2023/01/23 00:31:41;;;;;;;5.72;2.72;;;4.00;78.30;;;;;;5102447;28;20031;-73
2023/01/23 00:34:11;;;;;;;3.40;1.70;;;3.90;78.30;;;;;;5108102;28;20035;-73
2023/01/23 00:36:39;;;;;;;5.38;1.85;;;3.80;78.70;;;;;;5100632;28;20055;-73
2023/01/23 00:39:20;;;;;;;5.50;1.70;;;3.80;78.60;;;;;;5103708;28;20024;-73
2023/01/23 00:41:48;;;;;;;5.07;2.08;;;3.70;79.20;;;;;;5102104;28;20111;-73
2023/01/23 00:44:14;;;;;;;4.75;1.73;;;3.70;78.40;;;;;;5103133;28;20036;-73
2023/01/23 00:46:40;;;;;;;4.63;1.98;;;3.80;78.40;;;;;;5105528;28;20103;-73
2023/01/23 00:49:06;;;;;;;3.30;1.58;;;3.80;78.90;;;;;;5099371;28;20120;-73
2023/01/23 00:51:32;;;;;;;3.42;1.58;;;3.70;78.60;;;;;;5093451;28;20456;-73
2023/01/23 00:53:58;;;;;;;3.42;1.50;;;3.70;79.20;;;;;;5106070;28;20038;-73
2023/01/23 00:56:23;;;;;;;5.65;2.05;;;3.70;79.10;;;;;;5106775;28;20027;-73
2023/01/23 00:58:49;;;;;;;3.17;1.50;;;3.70;78.40;;;;;;5100085;28;20020;-73
2023/01/23 01:01:16;;;;;;;4.43;1.73;;;3.80;78.80;;;;;;5103935;28;20130;-73
2023/01/23 01:03:43;;;;;;;3.78;2.05;;;3.70;79.40;;;;;;5107235;28;20024;-73
2023/01/23 01:06:10;;;;;;;3.72;1.38;;;3.70;78.60;;;;;;5099129;28;20027;-73
2023/01/23 01:08:36;;;;;;;4.82;2.25;;;3.70;79.00;;;;;;5094602;28;20076;-73
2023/01/23 01:11:02;;;;;;;3.75;1.50;;;3.70;78.80;;;;;;5106621;28;20032;-73
2023/01/23 01:13:28;;;;;;;4.22;1.75;;;3.70;79.00;;;;;;5097888;28;20103;-73
2023/01/23 01:15:54;;;;;;;6.40;1.80;;;3.70;78.90;;;;;;5098363;28;20035;-73
2023/01/23 01:18:21;;;;;;;3.42;1.67;;;3.80;78.80;;;;;;5105889;28;20052;-73
2023/01/23 01:20:48;;;;;;;3.55;1.77;;;3.80;79.00;;;;;;5104114;28;20031;-73
2023/01/23 01:23:14;;;;;;;4.22;1.48;;;3.80;78.60;;;;;;5102169;28;20039;-73
2023/01/23 01:25:40;;;;;;;1.75;0.90;;;3.70;78.30;;;;;;5105711;28;20035;-73
2023/01/23 01:28:07;;;;;;;3.28;1.60;;;3.70;78.70;;;;;;5111233;28;20043;-73
2023/01/23 01:30:33;;;;;;;4.03;1.40;;;3.70;79.30;;;;;;5107020;28;20058;-73
2023/01/23 01:32:59;;;;;;;8.77;1.45;;;3.70;78.70;;;;;;5107918;28;20027;-73
2023/01/23 01:35:24;;;;;;;2.92;1.70;;;3.80;78.70;;;;;;5111220;28;20034;-73
2023/01/23 01:37:50;;;;;;;2.90;1.30;;;3.80;78.80;;;;;;5104620;28;20051;-73
2023/01/23 01:40:21;;;;;;;3.05;1.50;;;3.70;78.50;;;;;;5102420;28;20491;-73
2023/01/23 01:43:09;;;;;;;3.63;1.63;;;3.70;78.20;;;;;;5104592;28;20114;-73
2023/01/23 01:46:07;;;;;;;3.13;1.35;;;3.80;78.00;;;;;;5099486;28;20083;-73
2023/01/23 01:48:35;;;;;;;3.22;1.60;;;3.80;78.10;;;;;;5101508;28;20023;-73
2023/01/23 01:51:05;;;;;;;2.85;1.15;;;3.70;78.40;;;;;;5106855;28;20048;-73
2023/01/23 01:53:31;;;;;;;3.50;1.50;;;3.80;78.20;;;;;;5099819;28;20023;-73
2023/01/23 01:55:57;;;;;;;3.15;1.58;;;3.80;79.30;;;;;;5099884;28;20481;-73
2023/01/23 01:58:25;;;;;;;3.83;2.20;;;3.70;78.50;;;;;;5096564;28;20634;-73
2023/01/23 02:00:50;;;;;;;3.00;1.55;;;3.70;78.80;;;;;;5103416;28;20038;-73
2023/01/23 02:03:18;;;;;;;4.03;1.50;;;3.80;78.30;;;;;;5104481;28;20099;-73
2023/01/23 02:05:47;;;;;;;4.38;1.65;;;3.70;79.00;;;;;;5105468;28;20035;-73
2023/01/23 02:08:22;;;;;;;4.00;1.58;;;3.60;79.30;;;;;;5107748;27;20024;-73
2023/01/23 02:10:48;;;;;;;2.25;1.10;;;3.70;79.00;;;;;;5099227;28;20031;-73
2023/01/23 02:13:34;;;;;;;3.10;1.27;;;3.70;78.90;;;;;;5098064;28;20024;-73
2023/01/23 02:16:04;;;;;;;3.38;1.50;;;3.80;78.90;;;;;;5096597;28;20034;-73
2023/01/23 02:18:31;;;;;;;3.53;1.58;;;3.80;79.30;;;;;;5097691;27;20024;-73
2023/01/23 02:20:59;;;;;;;3.10;1.80;;;3.80;79.20;;;;;;5104476;28;20023;-73
2023/01/23 02:23:46;;;;;;;3.72;1.45;;;3.80;79.40;;;;;;5103910;28;20027;-73
2023/01/23 02:26:22;;;;;;;2.85;1.17;;;3.70;78.60;;;;;;5100722;28;20157;-73
2023/01/23 02:28:51;;;;;;;2.28;1.35;;;3.80;79.70;;;;;;5102709;28;20103;-73
2023/01/23 02:31:17;;;;;;;2.47;1.27;;;3.80;79.60;;;;;;5103483;28;20040;-73
2023/01/23 02:33:47;;;;;;;3.55;1.73;;;3.80;80.10;;;;;;5107962;28;20430;-73
2023/01/23 02:36:13;;;;;;;3.67;1.50;;;3.70;79.90;;;;;;5102912;28;20131;-73
2023/01/23 02:38:51;;;;;;;3.72;1.90;;;3.70;78.60;;;;;;5098956;28;20389;-73
2023/01/23 02:41:23;;;;;;;2.55;1.40;;;3.80;79.20;;;;;;5099295;28;20053;-73
2023/01/23 02:43:50;;;;;;;2.58;1.30;;;3.70;78.60;;;;;;5104883;28;20085;-73
2023/01/23 02:46:18;;;;;;;3.00;1.50;;;3.70;78.10;;;;;;5102980;28;20043;-73
2023/01/23 02:48:44;;;;;;;3.55;1.23;;;3.60;78.90;;;;;;5108762;28;20028;-73
2023/01/23 02:51:10;;;;;;;3.40;1.75;;;3.50;78.10;;;;;;5109477;28;20092;-73
2023/01/23 02:53:36;;;;;;;3.28;1.52;;;3.60;79.10;;;;;;5103865;28;20038;-73
2023/01/23 02:56:02;;;;;;;3.15;1.60;;;3.60;78.20;;;;;;5101072;28;20133;-73
2023/01/23 03:01:12;;;;;;;2.45;1.17;;;3.60;78.10;;;;;;5100677;28;20050;-73
2023/01/23 03:03:41;;;;;;;8.00;1.60;;;3.60;78.10;;;;;;5102957;28;20423;-73
2023/01/23 03:06:07;;;;;;;3.70;1.67;;;3.70;78.50;;;;;;5102464;28;20034;-73
2023/01/23 03:08:35;;;;;;;2.60;1.10;;;3.70;78.60;;;;;;5103568;28;20057;-73
2023/01/23 03:11:01;;;;;;;2.88;1.38;;;3.70;78.90;;;;;;5099560;28;20027;-73
2023/01/23 03:13:28;;;;;;;3.28;1.40;;;3.80;78.30;;;;;;5102151;28;20128;-73
2023/01/23 03:15:57;;;;;;;3.00;1.45;;;3.80;78.40;;;;;;5099866;28;20061;-73
2023/01/23 03:18:26;;;;;;;3.75;1.60;;;3.70;80.00;;;;;;5099499;28;20038;-73
2023/01/23 03:20:52;;;;;;;2.92;1.35;;;3.60;79.40;;;;;;5096242;28;20456;-73
2023/01/23 03:23:18;;;;;;;4.03;1.40;;;3.60;79.50;;;;;;5099906;28;20107;-73
2023/01/23 03:25:44;;;;;;;2.90;1.30;;;3.60;79.80;;;;;;5101320;28;20092;-73
2023/01/23 03:30:12;;;;;;;2.53;1.58;;;3.60;78.60;;;;;;5100620;28;20099;-73
2023/01/23 03:30:56;;;;;;;2.17;1.10;;;3.70;79.30;;;;;;5098587;28;20043;-73
2023/01/23 03:33:21;;;;;;;4.18;1.52;;;3.60;78.80;;;;;;5103777;28;20036;-73
2023/01/23 03:35:48;;;;;;;2.40;1.27;;;3.60;78.50;;;;;;5098407;28;20375;-73
2023/01/23 03:38:16;;;;;;;3.33;1.23;;;3.70;78.90;;;;;;5098030;28;20031;-73
2023/01/23 03:43:30;;;;;;;5.53;1.40;;;3.70;80.50;;;;;;5098129;28;20049;-73
2023/01/23 03:45:56;;;;;;;3.63;1.60;;;3.70;80.40;;;;;;5096708;28;20109;-73
2023/01/23 03:48:22;;;;;;;4.10;1.60;;;3.50;79.50;;;;;;5094003;28;20464;-73
2023/01/23 03:50:48;;;;;;;2.70;1.30;;;3.60;79.20;;;;;;5103912;28;20028;-73
2023/01/23 03:53:13;;;;;;;3.05;1.50;;;3.60;79.20;;;;;;5095699;28;20039;-73
2023/01/23 03:55:39;;;;;;;2.78;1.35;;;3.70;79.10;;;;;;5097120;28;20462;-73
2023/01/23 03:58:05;;;;;;;3.22;1.55;;;3.60;79.00;;;;;;5099257;28;20035;-73
2023/01/23 04:00:30;;;;;;;6.05;1.35;;;3.60;79.80;;;;;;5093224;28;20081;-71
2023/01/23 04:02:56;;;;;;;2.78;1.20;;;3.70;78.70;;;;;;5096495;28;20103;-71
2023/01/23 04:05:22;;;;;;;3.22;1.45;;;3.60;78.90;;;;;;5101103;28;20038;-71
2023/01/23 04:07:47;;;;;;;4.10;1.60;;;3.70;79.60;;;;;;5095543;28;20039;-71
2023/01/23 04:10:14;;;;;;;2.55;1.30;;;3.60;79.10;;;;;;5095360;28;20374;-72
2023/01/23 04:12:42;;;;;;;3.58;1.60;;;3.70;79.30;;;;;;5094790;28;20458;-71
2023/01/23 04:15:09;;;;;;;3.78;1.70;;;3.60;79.30;;;;;;5095529;28;20028;-71
2023/01/23 04:17:34;;;;;;;2.75;1.27;;;3.70;78.90;;;;;;5093325;28;20100;-71
2023/01/23 04:20:00;;;;;;;3.13;1.20;;;3.60;79.60;;;;;;5091519;28;20534;-71
2023/01/23 04:22:25;;;;;;;3.58;1.52;;;3.60;79.70;;;;;;5093424;28;20591;-71
2023/01/23 04:24:51;;;;;;;4.22;1.40;;;3.60;79.60;;;;;;5091518;28;20362;-71
2023/01/23 04:27:17;;;;;;;4.05;1.60;;;3.60;79.50;;;;;;5094470;28;20103;-72
2023/01/23 04:29:42;;;;;;;2.45;1.20;;;3.50;80.00;;;;;;5094245;28;20039;-71
2023/01/23 04:32:08;;;;;;;3.13;1.38;;;3.50;79.60;;;;;;5102406;28;20474;-70
2023/01/23 04:34:34;;;;;;;2.22;1.10;;;3.50;80.00;;;;;;5093238;28;20642;-71
2023/01/23 04:37:00;;;;;;;3.78;1.40;;;3.50;79.20;;;;;;5095204;28;20123;-70
2023/01/23 04:39:25;;;;;;;6.03;1.60;;;3.40;80.00;;;;;;5091762;28;20032;-70
2023/01/23 04:41:51;;;;;;;3.13;1.50;;;3.40;79.60;;;;;;5095124;28;20023;-71
2023/01/23 04:44:20;;;;;;;3.80;1.40;;;3.50;79.10;;;;;;5091058;28;20530;-71
2023/01/23 04:46:48;;;;;;;3.60;1.20;;;3.50;79.00;;;;;;5100668;28;20028;-71
2023/01/23 04:49:14;;;;;;;3.28;1.30;;;3.50;79.90;;;;;;5095890;28;20115;-71
2023/01/23 04:51:40;;;;;;;2.75;1.15;;;3.50;79.60;;;;;;5095723;28;20134;-71
2023/01/23 04:54:05;;;;;;;3.08;1.30;;;3.50;78.90;;;;;;5096025;28;20031;-70
2023/01/23 04:56:31;;;;;;;2.60;1.40;;;3.50;79.30;;;;;;5095003;28;20076;-70
2023/01/23 04:58:57;;;;;;;2.90;1.38;;;3.50;79.70;;;;;;5098096;28;20444;-70
2023/01/23 05:01:22;;;;;;;5.57;1.55;;;3.60;78.90;;;;;;5095838;28;20066;-70
2023/01/23 05:03:50;;;;;;;3.10;1.27;;;3.50;79.90;;;;;;5091651;28;20115;-71
2023/01/23 05:06:15;;;;;;;4.93;1.35;;;3.50;79.70;;;;;;5094004;28;20400;-71
2023/01/23 05:08:41;;;;;;;4.13;1.40;;;3.60;79.10;;;;;;5095213;28;20032;-71
2023/01/23 05:11:07;;;;;;;4.25;1.50;;;3.60;79.40;;;;;;5089971;28;20024;-71
2023/01/23 05:13:32;;;;;;;4.15;1.63;;;3.50;79.10;;;;;;5097421;28;20051;-71
2023/01/23 05:15:58;;;;;;;4.03;1.70;;;3.60;79.20;;;;;;5099368;28;20024;-71
2023/01/23 05:18:24;;;;;;;2.65;1.35;;;3.60;79.20;;;;;;5093109;28;20031;-71
2023/01/23 05:20:49;;;;;;;5.95;1.65;;;3.60;79.20;;;;;;5100649;28;20073;-71
2023/01/23 05:23:15;;;;;;;2.10;1.25;;;3.50;79.30;;;;;;5102569;28;20078;-70
2023/01/23 05:25:41;;;;;;;3.38;1.20;;;3.60;79.90;;;;;;5099528;28;20536;-70
2023/01/23 05:28:06;;;;;;;2.72;1.30;;;3.40;79.50;;;;;;5096550;28;20041;-71
2023/01/23 05:30:32;;;;;;;3.35;1.33;;;3.40;79.60;;;;;;5098440;28;20111;-71
2023/01/23 05:32:58;;;;;;;6.43;1.42;;;3.40;79.60;;;;;;5091033;28;20157;-70
2023/01/23 05:35:23;;;;;;;3.55;1.70;;;3.40;79.50;;;;;;5097225;28;20123;-71
2023/01/23 05:37:52;;;;;;;2.85;1.40;;;3.40;79.90;;;;;;5103509;28;20043;-71
2023/01/23 05:40:19;;;;;;;3.45;1.45;;;3.50;80.00;;;;;;5094168;28;20028;-71
2023/01/23 05:42:46;;;;;;;4.10;1.85;;;3.50;79.70;;;;;;5097909;28;20028;-71
2023/01/23 05:45:12;;;;;;;2.85;1.58;;;3.50;79.90;;;;;;5094903;27;20072;-71
2023/01/23 05:47:38;;;;;;;2.88;1.30;;;3.50;79.60;;;;;;5096550;28;20676;-71
2023/01/23 05:50:05;;;;;;;3.00;1.25;;;3.50;79.80;;;;;;5104612;28;20044;-71
2023/01/23 05:52:30;;;;;;;2.60;1.25;;;3.50;79.90;;;;;;5098391;28;20020;-71
2023/01/23 05:54:56;;;;;;;4.60;2.00;;;3.50;79.80;;;;;;5100469;28;20027;-71
2023/01/23 05:57:22;;;;;;;2.88;1.30;;;3.50;79.70;;;;;;5098882;28;20028;-71
2023/01/23 05:59:48;;;;;;;3.15;1.50;;;3.60;79.90;;;;;;5094314;28;20503;-71
2023/01/23 06:02:14;;;;;;;3.03;1.42;;;3.60;79.90;;;;;;5097654;28;20472;-70
2023/01/23 06:04:39;;;;;;;3.83;1.48;;;3.60;80.30;;;;;;5100043;28;20474;-71
2023/01/23 06:07:13;;;;;;;3.33;1.55;;;3.60;80.00;;;;;;5097993;28;20032;-71
2023/01/23 06:09:39;;;;;;;2.35;1.05;;;3.60;80.20;;;;;;5092726;28;20032;-71
2023/01/23 06:12:05;;;;;;;4.30;1.88;;;3.70;79.90;;;;;;5094488;28;20045;-71
2023/01/23 06:14:31;;;;;;;2.63;1.20;;;3.70;80.40;;;;;;5102789;28;20056;-71
2023/01/23 06:16:56;;;;;;;2.13;1.20;;;3.70;80.40;;;;;;5092747;27;20369;-71
2023/01/23 06:19:22;;;;;;;3.70;1.52;;;3.70;80.10;;;;;;5097282;28;20478;-71
2023/01/23 06:21:48;;;;;;;2.17;1.02;;;3.70;81.00;;;;;;5098362;28;20106;-70
2023/01/23 06:24:13;;;;;;;3.42;1.40;;;3.60;81.00;;;;;;5096193;28;20039;-71
2023/01/23 06:26:39;;;;;;;4.20;1.95;;;3.60;81.60;;;;;;5103308;28;20028;-71
2023/01/23 06:29:05;;;;;;;5.47;1.70;;;3.60;81.20;;;;;;5111343;28;20036;-71
2023/01/23 06:31:31;;;;;;;3.17;1.60;;;3.60;81.00;;;;;;5103124;28;20081;-71
2023/01/23 06:33:57;;;;;;;2.47;1.40;;;3.70;81.10;;;;;;5097711;28;20603;-71
2023/01/23 06:36:24;;;;;;;3.65;1.50;;;3.70;81.50;;;;;;5098635;28;20126;-70
2023/01/23 06:38:50;;;;;;;6.00;2.03;;;3.80;80.90;;;;;;5096578;28;20386;-69
2023/01/23 06:41:16;;;;;;;5.05;1.80;;;3.80;81.20;;;;;;5092129;28;20075;-69
2023/01/23 06:43:42;;;;;;;2.60;1.30;;;3.80;81.00;;;;;;5088204;28;20063;-70
2023/01/23 06:46:11;;;;;;;3.78;1.67;;;3.80;81.20;;;;;;5099363;28;20024;-70
2023/01/23 06:48:38;;;;;;;3.10;1.23;;;3.80;80.80;;;;;;5093641;28;20055;-69
2023/01/23 06:51:04;;;;;;;3.63;1.40;;;3.90;80.90;;;;;;5097688;28;20035;-71
2023/01/23 06:53:31;;;;;;;3.35;1.08;;;3.80;81.50;;;;;;5087641;28;20035;-71
2023/01/23 06:56:04;;;;;;;3.35;1.20;;;3.80;81.40;;;;;;5092349;28;20023;-72
2023/01/23 06:58:30;;;;;;;4.07;1.50;;;3.90;81.30;;;;;;5086040;28;20027;-71
2023/01/23 07:00:56;;;;;;;3.65;1.55;;;3.90;81.80;;;;;;5094344;27;20023;-71
2023/01/23 07:03:22;;;;;;;4.75;1.60;;;3.80;84.10;;;;;;5089722;28;20075;-71
2023/01/23 07:05:48;;;;;;;3.83;1.80;;;3.80;84.90;;;;;;5089864;28;20497;-71
2023/01/23 07:08:13;;;;;;;4.15;1.88;;;3.70;86.10;;;;;;5094090;28;20027;-71
2023/01/23 07:10:39;;;;;;;5.07;1.90;;;3.70;85.90;;;;;;5095097;28;20024;-71
2023/01/23 07:13:09;;;;;;;4.72;2.53;;;3.70;85.90;;;;;;5097045;28;20449;-71
2023/01/23 07:15:36;;;;;;;4.03;2.10;;;3.70;87.30;;;;;;5093168;28;20560;-72
2023/01/23 07:18:02;;;;;;;4.85;1.83;;;3.70;86.60;;;;;;5089527;28;20051;-71
2023/01/23 07:20:28;;;;;;;4.18;1.88;;;3.70;83.80;;;;;;5098524;28;20027;-71
2023/01/23 07:22:55;;;;;;;5.90;1.92;;;3.80;85.10;;;;;;5087301;28;20417;-71
2023/01/23 07:25:22;;;;;;;3.03;1.30;;;3.80;83.60;;;;;;5094812;28;20047;-71
2023/01/23 07:27:48;;;;;;;4.10;1.75;;;3.90;81.80;;;;;;5087120;28;20490;-72
2023/01/23 07:30:14;;;;;;;2.65;1.20;;;3.90;82.90;;;;;;5097047;27;20042;-71
2023/01/23 07:32:40;;;;;;;3.53;1.67;;;3.90;80.90;;;;;;5091929;28;20538;-71
2023/01/23 07:35:06;;;;;;;3.47;2.03;;;4.00;82.30;;;;;;5101078;28;20152;-70
2023/01/23 07:37:32;;;;;;;3.47;1.67;;;4.00;82.60;;;;;;5095773;28;20044;-70
2023/01/23 07:39:58;;;;;;;5.28;1.85;;;4.00;81.40;;;;;;5089178;28;20103;-70
2023/01/23 07:42:24;;;;;;;3.22;1.42;;;4.00;81.50;;;;;;5088505;28;20038;-70
2023/01/23 07:44:49;;;;;;;4.18;1.65;;;4.10;81.00;;;;;;5089311;28;20051;-70
2023/01/23 07:47:15;;;;;;;3.80;1.50;;;4.10;80.60;;;;;;5092315;28;20039;-70
2023/01/23 07:49:41;;;;;;;3.75;1.60;;;4.10;81.40;;;;;;5097168;28;20027;-70
2023/01/23 07:52:06;;;;;;;3.13;1.77;;;4.10;81.10;;;;;;5091084;28;20027;-70
2023/01/23 07:54:32;;;;;;;4.70;2.60;;;4.00;81.50;;;;;;5093875;28;20099;-70
2023/01/23 07:56:58;;;;;;;3.65;1.65;;;4.00;80.90;;;;;;5099375;27;20034;-70
2023/01/23 07:59:23;;;;;;;6.53;1.80;;;4.10;81.10;;;;;;5091833;28;20110;-70
2023/01/23 08:01:51;;;;;;;4.47;1.85;;;4.10;80.80;;;;;;5096258;28;20028;-69
2023/01/23 08:04:17;;;;;;;3.47;1.70;;;4.10;80.90;;;;;;5095849;28;20036;-70
2023/01/23 08:06:43;;;;;;;2.53;1.52;;;4.10;81.30;;;;;;5089097;28;20039;-70
2023/01/23 08:09:09;;;;;;;3.88;1.50;;;6.40;91.40;;;;;;5096314;28;20129;-71
2023/01/23 08:11:35;;;;;;;3.70;1.27;;;4.70;80.80;;;;;;5096637;28;20024;-71
2023/01/23 08:14:01;;;;;;;4.85;1.50;;;4.30;81.50;;;;;;5094700;28;20137;-71
2023/01/23 08:16:27;;;;;;;4.82;1.80;;;4.20;82.20;;;;;;5092360;28;20498;-71
2023/01/23 08:18:53;;;;;;;4.80;1.60;;;4.20;81.60;;;;;;5093185;28;20032;-71
2023/01/23 08:21:19;;;;;;;3.63;1.58;;;4.20;81.90;;;;;;5099051;28;20020;-71
2023/01/23 08:23:45;;;;;;;4.93;1.35;;;4.20;82.70;;;;;;5098450;28;20028;-71
2023/01/23 08:26:13;;;;;;;4.15;1.80;;;4.20;82.80;;;;;;5094148;28;20067;-71
2023/01/23 08:28:40;;;;;;;4.32;1.63;;;4.30;83.00;;;;;;5093880;28;20020;-71
2023/01/23 08:31:07;;;;;;;3.95;1.52;;;4.30;83.10;;;;;;5099705;28;20062;-71
2023/01/23 08:33:34;;;;;;;3.22;1.50;;;4.30;83.20;;;;;;5095922;28;20032;-71
2023/01/23 08:36:00;;;;;;;4.43;1.63;;;4.40;84.00;;;;;;5100539;28;20080;-71
2023/01/23 08:38:26;;;;;;;5.28;1.60;;;4.40;84.30;;;;;;5095870;28;20554;-71
2023/01/23 08:40:54;;;;;;;3.15;1.40;;;4.50;85.20;;;;;;5094960;28;20024;-71
2023/01/23 08:43:20;;;;;;;2.90;1.40;;;4.60;87.30;;;;;;5096528;28;20036;-71
2023/01/23 08:45:51;;;;;;;3.15;1.20;;;4.50;83.10;;;;;;5096376;28;20043;-71
2023/01/23 08:48:18;;;;;;;4.53;2.00;;;4.50;85.30;;;;;;5101613;27;20063;-71
2023/01/23 08:50:44;;;;;;;4.18;1.92;;;4.50;86.90;;;;;;5101244;28;20079;-71
2023/01/23 08:53:11;;;;;;;4.50;1.52;;;4.50;84.10;;;;;;5098550;28;20039;-71
2023/01/23 08:55:37;;;;;;;3.33;1.23;;;4.40;83.50;;;;;;5099237;28;20057;-71
2023/01/23 08:58:07;;;;;;;4.35;1.48;;;4.50;86.40;;;;;;5088281;28;20421;-71
2023/01/23 09:00:33;;;;;;;2.55;1.40;;;4.60;92.10;;;;;;5103498;28;20020;-71
2023/01/23 09:03:00;;;;;;;3.45;1.73;;;4.60;97.70;;;;;;5101357;28;20107;-71
2023/01/23 09:05:27;;;;;;;3.25;1.38;;;4.60;94.60;;;;;;5096940;28;20509;-71
2023/01/23 09:07:53;;;;;;;3.95;1.55;;;4.40;89.30;;;;;;5102539;28;20025;-71
2023/01/23 09:10:19;;;;;;;3.78;1.73;;;4.30;87.60;;;;;;5102131;27;20210;-71
2023/01/23 09:12:45;;;;;;;4.28;1.90;;;4.40;89.80;;;;;;5099814;28;20162;-71
2023/01/23 09:15:11;;;;;;;4.07;1.50;;;4.50;90.00;;;;;;5100854;28;20389;-71
2023/01/23 09:17:36;;;;;;;6.38;2.20;;;4.50;87.70;;;;;;5104917;28;20024;-71
2023/01/23 09:20:05;;;;;;;5.30;2.08;;;4.40;87.10;;;;;;5099116;28;20028;-71
2023/01/23 09:22:31;;;;;;;2.90;1.30;;;4.40;88.20;;;;;;5100975;28;20043;-71
2023/01/23 09:24:57;;;;;;;5.95;1.95;;;4.40;87.00;;;;;;5098670;28;20063;-71
2023/01/23 09:27:23;;;;;;;5.75;2.17;;;4.50;86.80;;;;;;5099824;28;20065;-71
2023/01/23 09:29:49;;;;;;;5.05;1.85;;;4.60;89.10;;;;;;5096130;28;21200;-71
2023/01/23 09:32:15;;;;;;;3.88;1.90;;;4.70;89.40;;;;;;5099042;28;20377;-71
2023/01/23 09:34:41;;;;;;;4.85;1.80;;;4.50;88.10;;;;;;5090019;28;20020;-71
2023/01/23 09:37:06;;;;;;;8.50;3.75;;;4.60;90.80;;;;;;5096679;28;20065;-71
2023/01/23 09:39:32;;;;;;;3.78;1.55;;;4.50;89.40;;;;;;5093635;28;20175;-71
2023/01/23 09:42:06;;;;;;;3.90;1.85;;;4.60;92.40;;;;;;5100631;28;20028;-71
2023/01/23 09:44:43;;;;;;;4.53;1.73;;;4.50;89.20;;;;;;5089212;28;20085;-71
2023/01/23 09:47:25;;;;;;;4.50;1.70;;;4.40;90.20;;;;;;5093952;28;20028;-71
2023/01/23 09:49:59;;;;;;;5.70;1.45;;;4.50;89.50;;;;;;5093492;28;20028;-71
2023/01/23 09:53:04;;;;;;;3.10;1.30;;;4.60;90.80;;;;;;5105689;28;20024;-71
2023/01/23 09:56:02;;;;;;;3.83;1.50;;;4.60;92.00;;;;;;5096620;28;20024;-71
2023/01/23 09:58:36;;;;;;;2.88;1.17;;;4.60;92.20;;;;;;5096228;28;20070;-71
2023/01/23 10:01:01;;;;;;;4.78;1.67;;;4.60;97.90;;;;;;5102142;28;20024;-71
2023/01/23 10:03:30;;;;;;;2.17;1.00;;;4.50;99.90;;;;;;5092993;28;20111;-71
2023/01/23 10:06:22;;;;;;;3.70;1.20;;;4.50;99.90;;;;;;5097758;28;20737;-71
2023/01/23 10:09:26;;;;;;;4.28;1.80;;;4.60;99.90;;;;;;5101045;28;20035;-71
2023/01/23 10:12:17;;;;;;;4.57;2.50;;;4.50;99.90;;;;;;5096951;28;20028;-71
2023/01/23 10:15:09;;;;;;;4.28;2.10;;;4.30;99.90;;;;;;5094787;28;20020;-71
2023/01/23 10:17:52;;;;;;;4.22;1.90;;;4.30;99.90;;;;;;5090255;28;20214;-71
2023/01/23 10:20:45;;;;;;;3.60;1.92;;;4.30;99.90;;;;;;5092850;28;20026;-71
2023/01/23 10:23:31;;;;;;;4.53;1.80;;;4.40;99.90;;;;;;5098659;28;20036;-71
2023/01/23 10:25:57;;;;;;;4.30;2.63;;;4.50;99.90;;;;;;5095109;28;20044;-71
2023/01/23 10:28:34;;;;;;;6.40;3.08;;;4.30;99.90;;;;;;5096740;28;20020;-71
2023/01/23 10:31:07;;;;;;;3.97;2.05;;;4.20;99.90;;;;;;5090042;28;20458;-71
2023/01/23 10:33:35;;;;;;;3.72;1.92;;;4.30;99.90;;;;;;5097824;28;20577;-71
2023/01/23 10:36:16;;;;;;;7.55;2.63;;;4.40;99.90;;;;;;5097624;28;20359;-71
2023/01/23 10:38:57;;;;;;;3.28;1.63;;;4.40;99.90;;;;;;5096377;28;20024;-71
2023/01/23 10:41:23;;;;;;;5.13;1.63;;;4.30;99.90;;;;;;5097516;28;20035;-71
2023/01/23 10:43:51;;;;;;;3.95;1.80;;;4.30;99.90;;;;;;5097455;28;20047;-71
2023/01/23 10:46:29;;;;;;;4.03;1.67;;;4.40;99.90;;;;;;5098181;28;20039;-71
2023/01/23 10:48:55;;;;;;;4.25;1.20;;;4.50;99.90;;;;;;5100257;28;20028;-71
2023/01/23 10:51:49;;;;;;;4.25;2.42;;;4.60;99.90;;;;;;5102198;28;20036;-71
2023/01/23 10:54:25;;;;;;;5.00;2.70;;;4.30;99.90;;;;;;5098479;28;20028;-71
2023/01/23 10:56:59;;;;;;;4.30;2.20;;;4.10;99.90;;;;;;5095875;28;20035;-71
2023/01/23 10:59:30;;;;;;;4.97;2.60;;;4.20;99.90;;;;;;5098587;28;20764;-71
2023/01/23 11:01:55;;;;;;;4.55;2.50;;;4.00;99.90;;;;;;5094318;28;20747;-71
2023/01/23 11:04:25;;;;;;;4.65;3.08;;;3.90;99.90;;;;;;5099486;28;20047;-71
2023/01/23 11:07:05;;;;;;;3.53;1.83;;;4.00;99.90;;;;;;5098926;28;20020;-71
2023/01/23 11:09:31;;;;;;;3.63;2.00;;;4.10;99.90;;;;;;5102849;28;20085;-71
2023/01/23 11:12:05;;;;;;;4.63;2.47;;;4.00;99.90;;;;;;5088699;28;20032;-71
2023/01/23 11:14:32;;;;;;;5.43;2.53;;;4.10;99.90;;;;;;5100342;28;20075;-71
2023/01/23 11:17:18;;;;;;;6.03;2.90;;;4.20;99.90;;;;;;5096022;28;20055;-71
2023/01/23 11:19:46;;;;;;;6.93;2.53;;;4.00;99.90;;;;;;5099677;28;20038;-71
2023/01/23 11:22:37;;;;;;;5.90;2.72;;;4.00;99.90;;;;;;5097599;28;20486;-71
2023/01/23 11:25:26;;;;;;;3.83;2.22;;;4.00;99.90;;;;;;5096780;28;20054;-71
2023/01/23 11:28:00;;;;;;;4.10;2.08;;;4.00;99.90;;;;;;5094141;28;20086;-71
2023/01/23 11:30:37;;;;;;;4.30;2.67;;;3.90;99.90;;;;;;5101509;28;20046;-71
2023/01/23 11:33:23;;;;;;;4.90;2.60;;;4.00;99.90;;;;;;5099778;28;20297;-71
2023/01/23 11:36:13;;;;;;;5.70;2.85;;;4.00;99.90;;;;;;5102389;28;20035;-71
2023/01/23 11:38:46;;;;;;;2.72;1.38;;;4.00;99.90;;;;;;5054458;28;20038;-71
2023/01/23 11:41:13;;;;;;;4.30;1.80;;;4.10;99.90;;;;;;5099905;28;20378;-71
2023/01/23 11:43:40;;;;;;;5.10;3.00;;;4.30;99.90;;;;;;5100598;28;20488;-71
2023/01/23 11:46:30;;;;;;;5.88;2.63;;;4.30;99.90;;;;;;5092403;28;20662;-71
2023/01/23 11:49:22;;;;;;;4.57;2.65;;;4.20;99.90;;;;;;5092532;28;20032;-71
2023/01/23 11:52:25;;;;;;;4.68;2.60;;;4.20;99.90;;;;;;5092822;28;20561;-71
2023/01/23 11:55:03;;;;;;;4.30;2.25;;;4.40;99.90;;;;;;5098678;28;20028;-71
2023/01/23 11:57:44;;;;;;;4.25;2.00;;;4.30;99.90;;;;;;5100243;28;20026;-71
2023/01/23 12:00:16;;;;;;;3.60;1.75;;;4.40;99.90;;;;;;5096815;28;20040;-71
2023/01/23 12:03:11;;;;;;;4.60;2.47;;;4.50;99.90;;;;;;5097703;28;20043;-71
2023/01/23 12:05:43;;;;;;;5.63;2.10;;;4.40;99.90;;;;;;5092139;28;20075;-71
2023/01/23 12:08:33;;;;;;;4.82;2.00;;;4.60;99.90;;;;;;5091366;28;20030;-71
2023/01/23 12:11:02;;;;;;;4.30;2.42;;;4.50;99.90;;;;;;5096694;28;20055;-71
2023/01/23 12:13:54;;;;;;;5.03;2.00;;;4.40;99.90;;;;;;5096871;28;20110;-71
2023/01/23 12:16:27;;;;;;;4.07;1.98;;;4.60;99.90;;;;;;5076672;28;20369;-71
2023/01/23 12:19:34;;;;;;;7.55;2.53;;;4.70;99.90;;;;;;5095427;28;20793;-71
2023/01/23 12:22:24;;;;;;;4.38;2.05;;;4.80;99.90;;;;;;5097723;28;20103;-71
2023/01/23 12:25:22;;;;;;;3.65;1.60;;;4.70;99.90;;;;;;5097296;28;20034;-71
2023/01/23 12:27:56;;;;;;;4.65;2.25;;;4.60;99.90;;;;;;5094022;28;20061;-71
2023/01/23 12:30:33;;;;;;;3.90;1.95;;;4.80;99.90;;;;;;5096767;28;20065;-71
2023/01/23 12:33:24;;;;;;;5.85;1.98;;;4.80;99.90;;;;;;5094137;28;20035;-72
2023/01/23 12:36:13;;;;;;;4.38;2.30;;;4.90;99.90;;;;;;5096174;28;20036;-71
2023/01/23 12:38:57;;;;;;;7.88;3.53;;;4.60;99.90;;;;;;5093910;28;20059;-71
2023/01/23 12:41:40;;;;;;;6.03;2.67;;;4.50;99.90;;;;;;5098600;28;20035;-71
2023/01/23 12:44:17;;;;;;;4.70;2.17;;;4.60;99.90;;;;;;5094148;28;20036;-71
2023/01/23 12:47:09;;;;;;;7.22;3.13;;;4.70;99.90;;;;;;5097763;28;20382;-71
2023/01/23 12:49:53;;;;;;;6.10;2.85;;;4.80;99.90;;;;;;5087155;28;20401;-71
2023/01/23 12:52:25;;;;;;;6.28;2.40;;;4.60;99.90;;;;;;5090142;28;20051;-71
2023/01/23 12:55:04;;;;;;;4.38;1.80;;;4.60;99.90;;;;;;5098087;28;20020;-71
2023/01/23 12:57:40;;;;;;;2.90;1.70;;;4.60;99.90;;;;;;5096589;28;20031;-71
2023/01/23 13:00:24;;;;;;;6.45;2.45;;;4.80;99.90;;;;;;5090357;28;20031;-71
2023/01/23 13:03:14;;;;;;;7.45;2.65;;;4.70;99.90;;;;;;5095346;28;20027;-71
2023/01/23 13:05:58;;;;;;;6.45;3.05;;;4.80;99.90;;;;;;5093997;28;20050;-71
2023/01/23 13:08:26;;;;;;;8.32;3.17;;;4.60;99.90;;;;;;5096920;28;20081;-71
2023/01/23 13:13:45;;;;;;;3.70;1.75;;;4.40;99.90;;;;;;5097948;28;20042;-71
2023/01/23 13:16:10;;;;;;;5.45;2.63;;;4.50;99.90;;;;;;5096113;28;20094;-71
2023/01/23 13:25:08;;;;;;;5.00;2.78;;;4.20;99.90;;;;;;5093845;28;20452;-71
2023/01/23 13:27:36;;;;;;;7.75;3.13;;;4.30;99.90;;;;;;5096915;28;20147;-71